sensor_id;sensor_type;location;lat;lon;timestamp;pressure;altitude;pressure_sealevel;temperature;humidity
35778;BME280;21899;42.662;23.316;2023-04-15T00:02:17;93649.13;;;8.16;76.30
35778;BME280;21899;42.662;23.316;2023-04-15T00:04:47;93663.56;;;8.22;76.65
35778;BME280;21899;42.662;23.316;2023-04-15T00:07:13;93674.25;;;8.19;77.32
35778;BME280;21899;42.662;23.316;2023-04-15T00:09:40;93675.47;;;7.89;78.90
35778;BME280;21899;42.662;23.316;2023-04-15T00:12:06;93682.34;;;7.76;81.12
35778;BME280;21899;42.662;23.316;2023-04-15T00:14:33;93679.69;;;7.80;81.92
35778;BME280;21899;42.662;23.316;2023-04-15T00:16:59;93672.41;;;7.87;81.79
35778;BME280;21899;42.662;23.316;2023-04-15T00:19:25;93670.53;;;7.88;81.46
35778;BME280;21899;42.662;23.316;2023-04-15T00:21:50;93676.59;;;8.03;81.73
35778;BME280;21899;42.662;23.316;2023-04-15T00:24:16;93660.59;;;7.99;81.55
35778;BME280;21899;42.662;23.316;2023-04-15T00:26:41;93665.91;;;8.06;82.10
35778;BME280;21899;42.662;23.316;2023-04-15T00:29:07;93671.25;;;8.10;82.16
35778;BME280;21899;42.662;23.316;2023-04-15T00:31:32;93675.00;;;8.19;81.82
35778;BME280;21899;42.662;23.316;2023-04-15T00:33:57;93674.25;;;8.26;82.45
35778;BME280;21899;42.662;23.316;2023-04-15T00:36:23;93656.75;;;8.25;82.38
35778;BME280;21899;42.662;23.316;2023-04-15T00:38:50;93665.84;;;8.34;82.29
35778;BME280;21899;42.662;23.316;2023-04-15T00:41:17;93660.53;;;8.34;81.37
35778;BME280;21899;42.662;23.316;2023-04-15T00:43:43;93679.88;;;8.52;80.84
35778;BME280;21899;42.662;23.316;2023-04-15T00:46:11;93676.44;;;8.55;81.46
35778;BME280;21899;42.662;23.316;2023-04-15T00:48:38;93679.50;;;8.47;80.74
35778;BME280;21899;42.662;23.316;2023-04-15T00:51:05;93675.34;;;8.46;80.34
35778;BME280;21899;42.662;23.316;2023-04-15T00:53:31;93665.84;;;8.34;80.05
35778;BME280;21899;42.662;23.316;2023-04-15T00:55:57;93660.91;;;8.22;81.32
35778;BME280;21899;42.662;23.316;2023-04-15T00:58:22;93672.38;;;8.02;82.28
35778;BME280;21899;42.662;23.316;2023-04-15T01:00:48;93676.59;;;7.95;83.07
35778;BME280;21899;42.662;23.316;2023-04-15T01:03:13;93672.03;;;7.92;82.94
35778;BME280;21899;42.662;23.316;2023-04-15T01:05:39;93682.28;;;8.01;83.34
35778;BME280;21899;42.662;23.316;2023-04-15T01:08:05;93675.09;;;7.91;83.53
35778;BME280;21899;42.662;23.316;2023-04-15T01:10:32;93680.03;;;8.00;83.13
35778;BME280;21899;42.662;23.316;2023-04-15T01:12:57;93685.72;;;7.98;83.49
35778;BME280;21899;42.662;23.316;2023-04-15T01:15:23;93686.47;;;8.06;83.63
35778;BME280;21899;42.662;23.316;2023-04-15T01:17:48;93691.81;;;8.06;83.11
35778;BME280;21899;42.662;23.316;2023-04-15T01:20:14;93682.69;;;8.00;83.97
35778;BME280;21899;42.662;23.316;2023-04-15T01:22:40;93679.25;;;7.92;85.13
35778;BME280;21899;42.662;23.316;2023-04-15T01:25:10;93669.03;;;7.80;86.17
35778;BME280;21899;42.662;23.316;2023-04-15T01:27:40;93671.69;;;7.69;88.11
35778;BME280;21899;42.662;23.316;2023-04-15T01:30:07;93669.03;;;7.59;89.69
35778;BME280;21899;42.662;23.316;2023-04-15T01:32:32;93668.28;;;7.55;89.84
35778;BME280;21899;42.662;23.316;2023-04-15T01:34:58;93669.03;;;7.59;89.49
35778;BME280;21899;42.662;23.316;2023-04-15T01:37:24;93656.09;;;7.50;91.14
35778;BME280;21899;42.662;23.316;2023-04-15T01:39:50;93660.69;;;7.46;91.75
35778;BME280;21899;42.662;23.316;2023-04-15T01:42:16;93664.88;;;7.40;93.04
35778;BME280;21899;42.662;23.316;2023-04-15T01:44:41;93667.53;;;7.40;94.05
35778;BME280;21899;42.662;23.316;2023-04-15T01:47:06;93670.56;;;7.28;94.37
35778;BME280;21899;42.662;23.316;2023-04-15T01:49:32;93674.75;;;7.26;95.46
35778;BME280;21899;42.662;23.316;2023-04-15T01:51:58;93689.59;;;7.30;94.97
35778;BME280;21899;42.662;23.316;2023-04-15T01:54:23;93694.13;;;7.26;95.43
35778;BME280;21899;42.662;23.316;2023-04-15T01:56:49;93693.75;;;7.31;94.92
35778;BME280;21899;42.662;23.316;2023-04-15T01:59:14;93691.88;;;7.32;94.82
35778;BME280;21899;42.662;23.316;2023-04-15T02:01:40;93694.16;;;7.30;95.89
35778;BME280;21899;42.662;23.316;2023-04-15T02:04:06;93685.78;;;7.24;95.14
35778;BME280;21899;42.662;23.316;2023-04-15T02:06:32;93685.03;;;7.24;96.63
35778;BME280;21899;42.662;23.316;2023-04-15T02:08:57;93683.88;;;7.28;96.58
35778;BME280;21899;42.662;23.316;2023-04-15T02:11:23;93677.03;;;7.24;97.77
35778;BME280;21899;42.662;23.316;2023-04-15T02:13:49;93684.25;;;7.23;98.04
35778;BME280;21899;42.662;23.316;2023-04-15T02:16:18;93685.00;;;7.27;98.30
35778;BME280;21899;42.662;23.316;2023-04-15T02:18:44;93679.69;;;7.27;97.88
35778;BME280;21899;42.662;23.316;2023-04-15T02:21:10;93671.31;;;7.15;97.84
35778;BME280;21899;42.662;23.316;2023-04-15T02:23:35;93658.00;;;6.97;99.94
35778;BME280;21899;42.662;23.316;2023-04-15T02:26:01;93668.63;;;7.04;100.00
35778;BME280;21899;42.662;23.316;2023-04-15T02:28:26;93665.22;;;7.04;100.00
35778;BME280;21899;42.662;23.316;2023-04-15T02:30:51;93669.00;;;7.03;100.00
35778;BME280;21899;42.662;23.316;2023-04-15T02:33:18;93679.66;;;6.96;100.00
35778;BME280;21899;42.662;23.316;2023-04-15T02:35:43;93674.28;;;6.78;100.00
35778;BME280;21899;42.662;23.316;2023-04-15T02:38:10;93674.28;;;6.71;100.00
35778;BME280;21899;42.662;23.316;2023-04-15T02:40:36;93668.97;;;6.71;100.00
35778;BME280;21899;42.662;23.316;2023-04-15T02:43:01;93670.88;;;6.67;100.00
35778;BME280;21899;42.662;23.316;2023-04-15T02:45:27;93671.22;;;6.62;100.00
35778;BME280;21899;42.662;23.316;2023-04-15T02:47:53;93674.28;;;6.71;100.00
35778;BME280;21899;42.662;23.316;2023-04-15T02:50:19;93678.09;;;6.70;100.00
35778;BME280;21899;42.662;23.316;2023-04-15T02:52:45;93676.56;;;6.69;100.00
35778;BME280;21899;42.662;23.316;2023-04-15T02:55:10;93684.53;;;6.62;100.00
35778;BME280;21899;42.662;23.316;2023-04-15T02:57:37;93692.50;;;6.62;100.00
35778;BME280;21899;42.662;23.316;2023-04-15T03:00:04;93680.69;;;6.49;100.00
35778;BME280;21899;42.662;23.316;2023-04-15T03:02:34;93681.03;;;6.44;100.00
35778;BME280;21899;42.662;23.316;2023-04-15T03:04:59;93691.28;;;6.42;100.00
35778;BME280;21899;42.662;23.316;2023-04-15T03:07:25;93696.97;;;6.37;100.00
35778;BME280;21899;42.662;23.316;2023-04-15T03:09:50;93691.59;;;6.26;100.00
35778;BME280;21899;42.662;23.316;2023-04-15T03:12:16;93707.19;;;6.28;100.00
35778;BME280;21899;42.662;23.316;2023-04-15T03:14:41;93691.56;;;6.16;100.00
35778;BME280;21899;42.662;23.316;2023-04-15T03:17:07;93708.22;;;6.09;100.00
35778;BME280;21899;42.662;23.316;2023-04-15T03:19:32;93715.81;;;6.11;100.00
35778;BME280;21899;42.662;23.316;2023-04-15T03:21:58;93708.97;;;6.10;100.00
35778;BME280;21899;42.662;23.316;2023-04-15T03:24:23;93699.06;;;6.03;100.00
35778;BME280;21899;42.662;23.316;2023-04-15T03:26:49;93711.59;;;6.03;100.00
35778;BME280;21899;42.662;23.316;2023-04-15T03:29:14;93707.38;;;5.98;100.00
35778;BME280;21899;42.662;23.316;2023-04-15T03:31:40;93721.84;;;6.01;100.00
35778;BME280;21899;42.662;23.316;2023-04-15T03:34:05;93721.81;;;5.97;100.00
35778;BME280;21899;42.662;23.316;2023-04-15T03:36:31;93718.00;;;5.98;100.00
35778;BME280;21899;42.662;23.316;2023-04-15T03:38:59;93736.25;;;6.00;100.00
35778;BME280;21899;42.662;23.316;2023-04-15T03:41:26;93736.97;;;5.93;100.00
35778;BME280;21899;42.662;23.316;2023-04-15T03:43:52;93733.88;;;5.84;100.00
35778;BME280;21899;42.662;23.316;2023-04-15T03:46:18;93749.09;;;5.91;100.00
35778;BME280;21899;42.662;23.316;2023-04-15T03:48:43;93737.28;;;5.85;100.00
35778;BME280;21899;42.662;23.316;2023-04-15T03:51:09;93751.25;;;5.82;100.00
35778;BME280;21899;42.662;23.316;2023-04-15T03:53:34;93753.59;;;5.87;100.00
35778;BME280;21899;42.662;23.316;2023-04-15T03:55:59;93767.72;;;5.98;100.00
35778;BME280;21899;42.662;23.316;2023-04-15T03:58:25;93762.41;;;5.94;100.00
35778;BME280;21899;42.662;23.316;2023-04-15T04:00:51;93755.03;;;5.77;100.00
35778;BME280;21899;42.662;23.316;2023-04-15T04:03:16;93757.66;;;5.74;100.00
35778;BME280;21899;42.662;23.316;2023-04-15T04:05:42;93759.56;;;5.73;100.00
35778;BME280;21899;42.662;23.316;2023-04-15T04:08:08;93756.50;;;5.71;100.00
35778;BME280;21899;42.662;23.316;2023-04-15T04:10:34;93761.88;;;5.82;100.00
35778;BME280;21899;42.662;23.316;2023-04-15T04:13:00;93745.94;;;5.82;100.00
35778;BME280;21899;42.662;23.316;2023-04-15T04:15:26;93759.81;;;6.05;100.00
35778;BME280;21899;42.662;23.316;2023-04-15T04:17:51;93763.06;;;6.42;100.00
35778;BME280;21899;42.662;23.316;2023-04-15T04:20:17;93763.22;;;6.77;100.00
35778;BME280;21899;42.662;23.316;2023-04-15T04:22:42;93756.09;;;7.16;100.00
35778;BME280;21899;42.662;23.316;2023-04-15T04:25:08;93759.22;;;7.57;100.00
35778;BME280;21899;42.662;23.316;2023-04-15T04:27:34;93750.81;;;8.01;97.90
35778;BME280;21899;42.662;23.316;2023-04-15T04:30:00;93755.34;;;8.39;95.17
35778;BME280;21899;42.662;23.316;2023-04-15T04:32:26;93759.44;;;8.75;92.39
35778;BME280;21899;42.662;23.316;2023-04-15T04:34:51;93755.56;;;8.86;91.01
35778;BME280;21899;42.662;23.316;2023-04-15T04:37:17;93750.78;;;9.25;88.12
35778;BME280;21899;42.662;23.316;2023-04-15T04:39:42;93754.00;;;9.61;85.03
35778;BME280;21899;42.662;23.316;2023-04-15T04:42:08;93751.47;;;9.95;82.19
35778;BME280;21899;42.662;23.316;2023-04-15T04:44:33;93762.66;;;9.79;81.74
35778;BME280;21899;42.662;23.316;2023-04-15T04:46:58;93754.25;;;9.77;81.56
35778;BME280;21899;42.662;23.316;2023-04-15T04:49:24;93771.53;;;9.66;82.51
35778;BME280;21899;42.662;23.316;2023-04-15T04:51:50;93778.00;;;9.68;82.12
35778;BME280;21899;42.662;23.316;2023-04-15T04:54:16;93786.13;;;9.47;82.78
35778;BME280;21899;42.662;23.316;2023-04-15T04:56:41;93778.19;;;9.40;82.36
35778;BME280;21899;42.662;23.316;2023-04-15T04:59:07;93780.84;;;9.44;79.72
35778;BME280;21899;42.662;23.316;2023-04-15T05:01:33;93779.16;;;9.67;77.83
35778;BME280;21899;42.662;23.316;2023-04-15T05:03:59;93793.94;;;9.82;78.19
35778;BME280;21899;42.662;23.316;2023-04-15T05:06:25;93795.81;;;9.85;77.87
35778;BME280;21899;42.662;23.316;2023-04-15T05:08:50;93790.16;;;9.76;78.47
35778;BME280;21899;42.662;23.316;2023-04-15T05:11:16;93804.00;;;10.19;75.70
35778;BME280;21899;42.662;23.316;2023-04-15T05:13:41;93821.69;;;10.46;75.41
35778;BME280;21899;42.662;23.316;2023-04-15T05:16:07;93827.03;;;10.87;72.74
35778;BME280;21899;42.662;23.316;2023-04-15T05:18:32;93827.91;;;11.11;70.96
35778;BME280;21899;42.662;23.316;2023-04-15T05:20:58;93825.66;;;11.39;70.01
35778;BME280;21899;42.662;23.316;2023-04-15T05:23:23;93818.19;;;11.54;68.23
35778;BME280;21899;42.662;23.316;2023-04-15T05:25:49;93830.06;;;11.53;66.65
35778;BME280;21899;42.662;23.316;2023-04-15T05:28:14;93829.91;;;11.37;65.36
35778;BME280;21899;42.662;23.316;2023-04-15T05:30:40;93823.09;;;11.29;65.95
35778;BME280;21899;42.662;23.316;2023-04-15T05:33:05;93817.78;;;10.95;66.06
35778;BME280;21899;42.662;23.316;2023-04-15T05:35:31;93814.69;;;10.97;66.50
35778;BME280;21899;42.662;23.316;2023-04-15T05:37:56;93809.53;;;10.79;65.64
35778;BME280;21899;42.662;23.316;2023-04-15T05:40:22;93816.00;;;10.82;66.34
35778;BME280;21899;42.662;23.316;2023-04-15T05:42:47;93812.25;;;10.76;67.51
35778;BME280;21899;42.662;23.316;2023-04-15T05:45:13;93805.50;;;10.64;67.64
35778;BME280;21899;42.662;23.316;2023-04-15T05:47:38;93816.66;;;10.56;67.26
35778;BME280;21899;42.662;23.316;2023-04-15T05:50:04;93826.31;;;10.46;67.35
35778;BME280;21899;42.662;23.316;2023-04-15T05:52:31;93820.19;;;10.45;66.75
35778;BME280;21899;42.662;23.316;2023-04-15T05:54:56;93809.31;;;10.22;65.94
35778;BME280;21899;42.662;23.316;2023-04-15T05:57:22;93817.09;;;9.99;68.63
35778;BME280;21899;42.662;23.316;2023-04-15T05:59:47;93825.44;;;10.08;68.53
35778;BME280;21899;42.662;23.316;2023-04-15T06:02:13;93832.72;;;10.04;68.25
35778;BME280;21899;42.662;23.316;2023-04-15T06:04:39;93831.16;;;10.07;68.62
35778;BME280;21899;42.662;23.316;2023-04-15T06:07:04;93832.78;;;9.94;68.80
35778;BME280;21899;42.662;23.316;2023-04-15T06:09:30;93836.25;;;9.91;69.12
35778;BME280;21899;42.662;23.316;2023-04-15T06:11:55;93836.13;;;10.05;69.57
35778;BME280;21899;42.662;23.316;2023-04-15T06:14:24;93841.06;;;10.17;71.22
35778;BME280;21899;42.662;23.316;2023-04-15T06:16:49;93841.09;;;10.10;72.46
35778;BME280;21899;42.662;23.316;2023-04-15T06:19:14;93844.91;;;10.16;72.14
35778;BME280;21899;42.662;23.316;2023-04-15T06:21:40;93830.03;;;10.11;72.78
35778;BME280;21899;42.662;23.316;2023-04-15T06:24:06;93840.25;;;10.20;72.51
35778;BME280;21899;42.662;23.316;2023-04-15T06:26:31;93853.59;;;10.23;70.89
35778;BME280;21899;42.662;23.316;2023-04-15T06:28:57;93859.28;;;10.32;70.43
35778;BME280;21899;42.662;23.316;2023-04-15T06:31:22;93855.75;;;10.42;70.07
35778;BME280;21899;42.662;23.316;2023-04-15T06:33:47;93859.09;;;10.53;68.98
35778;BME280;21899;42.662;23.316;2023-04-15T06:36:13;93867.38;;;10.66;68.71
35778;BME280;21899;42.662;23.316;2023-04-15T06:38:39;93873.03;;;10.75;67.04
35778;BME280;21899;42.662;23.316;2023-04-15T06:41:04;93862.13;;;10.59;66.79
35778;BME280;21899;42.662;23.316;2023-04-15T06:43:30;93876.53;;;10.72;66.44
35778;BME280;21899;42.662;23.316;2023-04-15T06:45:55;93876.38;;;10.86;66.33
35778;BME280;21899;42.662;23.316;2023-04-15T06:48:21;93875.41;;;11.07;65.97
35778;BME280;21899;42.662;23.316;2023-04-15T06:50:48;93860.78;;;11.15;64.63
35778;BME280;21899;42.662;23.316;2023-04-15T06:53:13;93890.59;;;11.17;64.09
35778;BME280;21899;42.662;23.316;2023-04-15T06:55:39;93878.59;;;10.95;65.02
35778;BME280;21899;42.662;23.316;2023-04-15T06:58:05;93881.59;;;11.00;64.63
35778;BME280;21899;42.662;23.316;2023-04-15T07:00:31;93865.50;;;11.04;64.30
35778;BME280;21899;42.662;23.316;2023-04-15T07:02:57;93863.72;;;11.24;63.91
35778;BME280;21899;42.662;23.316;2023-04-15T07:05:23;93878.88;;;11.37;62.43
35778;BME280;21899;42.662;23.316;2023-04-15T07:07:49;93885.72;;;11.42;62.54
35778;BME280;21899;42.662;23.316;2023-04-15T07:10:15;93871.09;;;11.50;61.80
35778;BME280;21899;42.662;23.316;2023-04-15T07:12:41;93877.72;;;11.72;61.44
35778;BME280;21899;42.662;23.316;2023-04-15T07:15:06;93867.25;;;11.81;60.68
35778;BME280;21899;42.662;23.316;2023-04-15T07:17:32;93873.59;;;11.94;59.74
35778;BME280;21899;42.662;23.316;2023-04-15T07:19:58;93871.22;;;12.00;58.84
35778;BME280;21899;42.662;23.316;2023-04-15T07:22:24;93887.41;;;12.19;58.66
35778;BME280;21899;42.662;23.316;2023-04-15T07:24:50;93870.13;;;12.20;58.34
35778;BME280;21899;42.662;23.316;2023-04-15T07:27:15;93880.72;;;12.31;57.78
35778;BME280;21899;42.662;23.316;2023-04-15T07:29:42;93873.78;;;12.33;58.31
35778;BME280;21899;42.662;23.316;2023-04-15T07:32:07;93882.25;;;12.55;57.73
35778;BME280;21899;42.662;23.316;2023-04-15T07:34:34;93885.75;;;12.75;56.73
35778;BME280;21899;42.662;23.316;2023-04-15T07:37:00;93878.69;;;12.84;56.36
35778;BME280;21899;42.662;23.316;2023-04-15T07:39:25;93888.97;;;12.89;55.03
35778;BME280;21899;42.662;23.316;2023-04-15T07:41:51;93881.19;;;12.95;55.07
35778;BME280;21899;42.662;23.316;2023-04-15T07:44:16;93876.69;;;13.12;54.48
35778;BME280;21899;42.662;23.316;2023-04-15T07:46:42;93870.72;;;13.24;53.44
35778;BME280;21899;42.662;23.316;2023-04-15T07:49:07;93876.53;;;13.42;52.72
35778;BME280;21899;42.662;23.316;2023-04-15T07:51:33;93882.38;;;13.56;52.82
35778;BME280;21899;42.662;23.316;2023-04-15T07:53:58;93894.72;;;13.73;51.32
35778;BME280;21899;42.662;23.316;2023-04-15T07:56:24;93883.03;;;13.60;51.34
35778;BME280;21899;42.662;23.316;2023-04-15T07:58:50;93897.78;;;13.72;50.38
35778;BME280;21899;42.662;23.316;2023-04-15T08:01:16;93889.59;;;13.79;50.04
35778;BME280;21899;42.662;23.316;2023-04-15T08:03:41;93893.84;;;13.96;50.51
35778;BME280;21899;42.662;23.316;2023-04-15T08:06:07;93898.75;;;14.01;48.06
35778;BME280;21899;42.662;23.316;2023-04-15T08:08:32;93897.47;;;13.70;49.17
35778;BME280;21899;42.662;23.316;2023-04-15T08:10:58;93899.59;;;13.78;48.32
35778;BME280;21899;42.662;23.316;2023-04-15T08:13:23;93882.00;;;13.74;47.17
35778;BME280;21899;42.662;23.316;2023-04-15T08:18:49;93886.22;;;14.10;43.21
35778;BME280;21899;42.662;23.316;2023-04-15T08:21:15;93895.47;;;14.29;42.72
35778;BME280;21899;42.662;23.316;2023-04-15T08:23:40;93891.06;;;14.35;42.73
35778;BME280;21899;42.662;23.316;2023-04-15T08:26:08;93891.09;;;14.67;42.69
35778;BME280;21899;42.662;23.316;2023-04-15T08:28:34;93886.19;;;14.94;42.56
35778;BME280;21899;42.662;23.316;2023-04-15T08:30:59;93896.91;;;15.26;42.53
35778;BME280;21899;42.662;23.316;2023-04-15T08:33:25;93890.75;;;15.26;42.31
35778;BME280;21899;42.662;23.316;2023-04-15T08:35:50;93884.41;;;15.32;41.89
35778;BME280;21899;42.662;23.316;2023-04-15T08:38:16;93882.34;;;15.40;41.69
35778;BME280;21899;42.662;23.316;2023-04-15T08:40:43;93878.16;;;15.35;42.84
35778;BME280;21899;42.662;23.316;2023-04-15T08:43:14;93874.97;;;15.12;42.97
35778;BME280;21899;42.662;23.316;2023-04-15T08:45:43;93881.06;;;15.28;42.80
35778;BME280;21899;42.662;23.316;2023-04-15T08:48:15;93878.81;;;15.55;41.24
35778;BME280;21899;42.662;23.316;2023-04-15T08:50:41;93884.03;;;15.75;39.27
35778;BME280;21899;42.662;23.316;2023-04-15T08:53:08;93871.91;;;15.96;39.31
35778;BME280;21899;42.662;23.316;2023-04-15T08:55:35;93880.34;;;16.23;36.94
35778;BME280;21899;42.662;23.316;2023-04-15T08:58:01;93881.84;;;16.36;36.20
35778;BME280;21899;42.662;23.316;2023-04-15T09:00:31;93872.56;;;16.50;34.89
35778;BME280;21899;42.662;23.316;2023-04-15T09:02:58;93871.78;;;15.99;35.20
35778;BME280;21899;42.662;23.316;2023-04-15T09:05:23;93855.25;;;15.85;33.01
35778;BME280;21899;42.662;23.316;2023-04-15T09:07:51;93850.59;;;15.85;34.16
35778;BME280;21899;42.662;23.316;2023-04-15T09:10:17;93852.78;;;16.15;34.77
35778;BME280;21899;42.662;23.316;2023-04-15T09:12:43;93864.25;;;16.57;34.26
35778;BME280;21899;42.662;23.316;2023-04-15T09:15:11;93849.03;;;16.50;37.65
35778;BME280;21899;42.662;23.316;2023-04-15T09:17:42;93859.59;;;16.20;39.82
35778;BME280;21899;42.662;23.316;2023-04-15T09:20:14;93852.03;;;16.40;39.57
35778;BME280;21899;42.662;23.316;2023-04-15T09:22:41;93839.84;;;16.48;38.46
35778;BME280;21899;42.662;23.316;2023-04-15T09:27:56;93854.16;;;16.82;37.69
35778;BME280;21899;42.662;23.316;2023-04-15T09:30:22;93849.00;;;16.63;36.07
35778;BME280;21899;42.662;23.316;2023-04-15T09:32:52;93855.38;;;16.56;36.38
35778;BME280;21899;42.662;23.316;2023-04-15T09:35:22;93851.16;;;16.68;35.45
35778;BME280;21899;42.662;23.316;2023-04-15T09:37:48;93846.09;;;17.04;34.58
35778;BME280;21899;42.662;23.316;2023-04-15T09:40:30;93847.59;;;17.39;32.71
35778;BME280;21899;42.662;23.316;2023-04-15T09:42:56;93842.69;;;17.25;31.66
35778;BME280;21899;42.662;23.316;2023-04-15T09:45:22;93851.50;;;17.38;32.01
35778;BME280;21899;42.662;23.316;2023-04-15T09:47:48;93846.94;;;17.69;30.98
35778;BME280;21899;42.662;23.316;2023-04-15T09:50:16;93849.28;;;17.89;29.61
35778;BME280;21899;42.662;23.316;2023-04-15T09:52:42;93846.72;;;18.16;28.35
35778;BME280;21899;42.662;23.316;2023-04-15T09:55:08;93853.72;;;18.35;27.84
35778;BME280;21899;42.662;23.316;2023-04-15T09:57:35;93848.44;;;18.62;27.55
35778;BME280;21899;42.662;23.316;2023-04-15T10:00:05;93852.81;;;18.78;27.78
35778;BME280;21899;42.662;23.316;2023-04-15T10:02:32;93852.13;;;18.95;26.61
35778;BME280;21899;42.662;23.316;2023-04-15T10:04:58;93852.72;;;19.17;26.24
35778;BME280;21899;42.662;23.316;2023-04-15T10:07:24;93853.34;;;19.21;25.91
35778;BME280;21899;42.662;23.316;2023-04-15T10:09:50;93848.97;;;19.24;26.09
35778;BME280;21899;42.662;23.316;2023-04-15T10:12:18;93841.91;;;19.35;26.39
35778;BME280;21899;42.662;23.316;2023-04-15T10:14:43;93836.34;;;19.30;26.64
35778;BME280;21899;42.662;23.316;2023-04-15T10:17:15;93824.72;;;19.57;26.20
35778;BME280;21899;42.662;23.316;2023-04-15T10:19:42;93832.69;;;19.78;26.04
35778;BME280;21899;42.662;23.316;2023-04-15T10:22:08;93828.75;;;19.88;26.16
35778;BME280;21899;42.662;23.316;2023-04-15T10:24:34;93825.84;;;20.01;25.60
35778;BME280;21899;42.662;23.316;2023-04-15T10:27:02;93823.28;;;20.06;25.90
35778;BME280;21899;42.662;23.316;2023-04-15T10:29:28;93813.03;;;20.01;25.51
35778;BME280;21899;42.662;23.316;2023-04-15T10:31:54;93819.22;;;19.93;25.53
35778;BME280;21899;42.662;23.316;2023-04-15T10:34:22;93810.09;;;19.54;25.26
35778;BME280;21899;42.662;23.316;2023-04-15T10:36:48;93821.28;;;19.38;25.92
35778;BME280;21899;42.662;23.316;2023-04-15T10:42:15;93814.63;;;19.48;25.40
35778;BME280;21899;42.662;23.316;2023-04-15T10:44:42;93822.91;;;19.63;25.66
35778;BME280;21899;42.662;23.316;2023-04-15T10:47:16;93812.78;;;19.81;25.33
35778;BME280;21899;42.662;23.316;2023-04-15T10:49:50;93803.66;;;19.93;25.70
35778;BME280;21899;42.662;23.316;2023-04-15T10:52:20;93805.69;;;19.75;25.56
35778;BME280;21899;42.662;23.316;2023-04-15T10:54:46;93818.19;;;19.81;25.82
35778;BME280;21899;42.662;23.316;2023-04-15T10:57:20;93801.00;;;19.84;25.59
35778;BME280;21899;42.662;23.316;2023-04-15T10:59:59;93806.72;;;19.86;24.61
35778;BME280;21899;42.662;23.316;2023-04-15T11:05:04;93789.91;;;20.06;24.43
35778;BME280;21899;42.662;23.316;2023-04-15T11:07:33;93798.47;;;20.22;23.56
35778;BME280;21899;42.662;23.316;2023-04-15T11:09:58;93806.22;;;20.06;24.10
35778;BME280;21899;42.662;23.316;2023-04-15T11:12:34;93805.28;;;20.18;24.18
35778;BME280;21899;42.662;23.316;2023-04-15T11:15:30;93809.19;;;20.26;24.25
35778;BME280;21899;42.662;23.316;2023-04-15T11:18:20;93804.75;;;20.37;23.53
35778;BME280;21899;42.662;23.316;2023-04-15T11:20:50;93806.53;;;20.40;23.96
35778;BME280;21899;42.662;23.316;2023-04-15T11:23:26;93795.38;;;20.38;24.01
35778;BME280;21899;42.662;23.316;2023-04-15T11:25:54;93796.63;;;20.28;23.84
35778;BME280;21899;42.662;23.316;2023-04-15T11:28:24;93786.72;;;20.07;24.61
35778;BME280;21899;42.662;23.316;2023-04-15T11:30:50;93793.81;;;20.05;24.98
35778;BME280;21899;42.662;23.316;2023-04-15T11:33:16;93802.44;;;20.03;24.41
35778;BME280;21899;42.662;23.316;2023-04-15T11:35:42;93794.25;;;20.12;24.43
35778;BME280;21899;42.662;23.316;2023-04-15T11:38:11;93790.25;;;20.40;24.59
35778;BME280;21899;42.662;23.316;2023-04-15T11:40:42;93802.41;;;20.54;23.74
35778;BME280;21899;42.662;23.316;2023-04-15T11:43:08;93800.69;;;20.65;22.86
35778;BME280;21899;42.662;23.316;2023-04-15T11:45:35;93791.81;;;20.80;22.53
35778;BME280;21899;42.662;23.316;2023-04-15T11:48:11;93804.03;;;20.84;22.24
35778;BME280;21899;42.662;23.316;2023-04-15T11:50:38;93795.75;;;20.79;22.26
35778;BME280;21899;42.662;23.316;2023-04-15T11:53:11;93802.03;;;20.61;21.67
35778;BME280;21899;42.662;23.316;2023-04-15T11:55:49;93797.97;;;20.33;22.21
35778;BME280;21899;42.662;23.316;2023-04-15T12:00:48;93789.41;;;20.25;23.49
35778;BME280;21899;42.662;23.316;2023-04-15T12:03:17;93795.69;;;20.31;22.98
35778;BME280;21899;42.662;23.316;2023-04-15T12:11:12;93796.50;;;20.14;22.79
35778;BME280;21899;42.662;23.316;2023-04-15T12:14:03;93799.41;;;20.19;23.27
35778;BME280;21899;42.662;23.316;2023-04-15T12:16:28;93782.56;;;20.30;22.90
35778;BME280;21899;42.662;23.316;2023-04-15T12:18:56;93785.38;;;20.44;23.00
35778;BME280;21899;42.662;23.316;2023-04-15T12:21:22;93788.66;;;20.57;22.50
35778;BME280;21899;42.662;23.316;2023-04-15T12:23:49;93789.72;;;20.74;22.17
35778;BME280;21899;42.662;23.316;2023-04-15T12:26:16;93780.25;;;20.94;21.88
35778;BME280;21899;42.662;23.316;2023-04-15T12:28:42;93787.44;;;21.06;22.60
35778;BME280;21899;42.662;23.316;2023-04-15T12:31:11;93794.16;;;20.96;23.30
35778;BME280;21899;42.662;23.316;2023-04-15T12:33:37;93791.13;;;20.94;23.53
35778;BME280;21899;42.662;23.316;2023-04-15T12:36:04;93792.63;;;20.95;23.64
35778;BME280;21899;42.662;23.316;2023-04-15T12:38:29;93798.44;;;21.11;22.73
35778;BME280;21899;42.662;23.316;2023-04-15T12:40:57;93797.63;;;21.20;22.98
35778;BME280;21899;42.662;23.316;2023-04-15T12:43:22;93807.25;;;21.06;23.16
35778;BME280;21899;42.662;23.316;2023-04-15T12:45:48;93793.91;;;20.85;23.53
35778;BME280;21899;42.662;23.316;2023-04-15T12:48:13;93808.84;;;20.65;23.67
35778;BME280;21899;42.662;23.316;2023-04-15T12:50:38;93811.44;;;20.60;23.93
35778;BME280;21899;42.662;23.316;2023-04-15T12:53:04;93805.91;;;20.45;24.27
35778;BME280;21899;42.662;23.316;2023-04-15T12:55:29;93794.81;;;20.34;24.26
35778;BME280;21899;42.662;23.316;2023-04-15T12:57:56;93801.94;;;20.55;23.98
35778;BME280;21899;42.662;23.316;2023-04-15T13:00:21;93808.06;;;20.65;23.65
35778;BME280;21899;42.662;23.316;2023-04-15T13:02:47;93804.25;;;20.71;23.87
35778;BME280;21899;42.662;23.316;2023-04-15T13:05:13;93806.75;;;20.60;23.42
35778;BME280;21899;42.662;23.316;2023-04-15T13:07:40;93804.75;;;20.37;23.34
35778;BME280;21899;42.662;23.316;2023-04-15T13:10:06;93797.75;;;20.13;23.67